Time;durP1;ratioP1;P1;durP2;ratioP2;P2;SDS_P1;SDS_P2;PMS_P1;PMS_P2;Temp;Humidity;BMP_temperature;BMP_pressure;BME280_temperature;BME280_humidity;BME280_pressure;Samples;Min_cycle;Max_cycle;Signal;HPM_P1;HPM_P2
2022/01/19 00:01:43;;;;;;;12.85;6.82;;;;;;;2.69;69.75;98168.94;5037234;28;20053;-89
2022/01/19 00:04:10;;;;;;;15.38;8.30;;;;;;;2.64;69.74;98163.22;5036698;28;20396;-91
2022/01/19 00:06:38;;;;;;;11.82;8.02;;;;;;;2.59;70.01;98160.09;5037303;28;20057;-87
2022/01/19 00:09:05;;;;;;;15.65;8.82;;;;;;;2.54;69.94;98146.69;5036506;28;20423;-86
2022/01/19 00:11:34;;;;;;;13.65;7.47;;;;;;;2.52;70.25;98121.00;5036623;28;20045;-90
2022/01/19 00:14:02;;;;;;;11.57;7.00;;;;;;;2.51;70.18;98111.59;5036216;28;20065;-89
2022/01/19 00:16:29;;;;;;;8.75;7.00;;;;;;;2.47;69.95;98102.41;5035690;28;20057;-84
2022/01/19 00:18:57;;;;;;;10.43;8.07;;;;;;;2.41;69.64;98101.06;5036596;28;20423;-87
2022/01/19 00:21:24;;;;;;;12.10;8.13;;;;;;;2.40;69.92;98098.56;5036367;28;20052;-85
2022/01/19 00:23:52;;;;;;;13.75;8.10;;;;;;;2.43;71.46;98099.22;5039946;28;20507;-83
2022/01/19 00:26:19;;;;;;;12.80;8.55;;;;;;;2.46;70.89;98096.44;5042365;28;20041;-87
2022/01/19 00:28:48;;;;;;;13.18;8.07;;;;;;;2.40;70.02;98099.38;5040321;28;20080;-90
2022/01/19 00:31:16;;;;;;;14.02;8.60;;;;;;;2.33;69.36;98098.13;5040870;28;20499;-89
2022/01/19 00:33:44;;;;;;;16.42;8.98;;;;;;;2.31;70.68;98105.09;5041058;28;20424;-88
2022/01/19 00:36:12;;;;;;;10.98;7.68;;;;;;;2.31;70.13;98109.44;5039978;28;20057;-91
2022/01/19 00:38:39;;;;;;;11.77;7.88;;;;;;;2.29;70.28;98106.13;5041315;28;20461;-88
2022/01/19 00:41:07;;;;;;;13.82;7.57;;;;;;;2.26;70.02;98095.09;5039732;28;20065;-90
2022/01/19 00:43:36;;;;;;;12.93;7.78;;;;;;;2.27;71.41;98093.31;5039079;28;20057;-88
2022/01/19 00:46:05;;;;;;;14.23;8.25;;;;;;;2.29;71.97;98094.06;5039029;28;20504;-84
2022/01/19 00:48:33;;;;;;;11.65;7.50;;;;;;;2.28;70.54;98089.03;5038541;28;20107;-88
2022/01/19 00:51:00;;;;;;;11.75;7.40;;;;;;;2.25;70.51;98087.44;5038760;28;20049;-92
2022/01/19 00:53:28;;;;;;;12.63;7.82;;;;;;;2.23;70.37;98076.41;5038571;28;20050;-91
2022/01/19 00:55:56;;;;;;;13.00;7.78;;;;;;;2.17;69.92;98069.09;5038435;28;20049;-84
2022/01/19 00:58:24;;;;;;;15.80;9.07;;;;;;;2.13;70.44;98075.31;5038244;28;20551;-85
2022/01/19 01:00:52;;;;;;;15.30;9.32;;;;;;;2.12;70.37;98078.81;5037959;28;20072;-90
2022/01/19 01:03:21;;;;;;;14.02;8.98;;;;;;;2.09;70.40;98063.56;5038939;28;20080;-89
2022/01/19 01:05:49;;;;;;;13.57;8.48;;;;;;;2.04;71.19;98062.09;5038831;28;20349;-83
2022/01/19 01:08:16;;;;;;;12.20;7.70;;;;;;;1.98;71.02;98065.03;5038785;28;20049;-90
2022/01/19 01:10:45;;;;;;;10.25;7.28;;;;;;;1.94;70.93;98062.72;5038057;28;20462;-91
2022/01/19 01:13:24;;;;;;;11.38;7.47;;;;;;;1.90;70.92;98053.53;5037777;28;20068;-88
2022/01/19 01:16:02;;;;;;;12.32;7.60;;;;;;;1.85;70.59;98041.75;5037986;28;20060;-89
2022/01/19 01:18:33;;;;;;;15.05;8.07;;;;;;;1.82;70.88;98048.84;5038030;28;20049;-84
2022/01/19 01:21:02;;;;;;;12.40;7.90;;;;;;;1.82;71.44;98047.09;5037312;28;20050;-84
2022/01/19 01:23:32;;;;;;;11.77;7.47;;;;;;;1.79;70.80;98031.88;5037755;28;20049;-86
2022/01/19 01:25:59;;;;;;;12.88;7.68;;;;;;;1.75;71.17;98030.38;5037709;28;20427;-83
2022/01/19 01:28:27;;;;;;;15.38;8.70;;;;;;;1.71;71.46;98022.94;5038090;28;20045;-88
2022/01/19 01:30:55;;;;;;;10.73;7.38;;;;;;;1.67;71.24;98024.88;5037528;28;20458;-89
2022/01/19 01:33:23;;;;;;;8.88;6.95;;;;;;;1.65;71.09;98024.94;5036988;28;20144;-88
2022/01/19 01:35:52;;;;;;;14.18;8.93;;;;;;;1.69;72.71;98020.47;5038894;28;20057;-87
2022/01/19 01:38:20;;;;;;;12.80;8.13;;;;;;;1.76;72.68;98026.88;5038881;28;20049;-90
2022/01/19 01:41:08;;;;;;;14.95;7.55;;;;;;;1.81;72.84;98049.75;5040589;28;20053;-87
2022/01/19 01:43:36;;;;;;;10.70;7.18;;;;;;;1.79;71.85;98047.31;5039132;28;20049;-88
2022/01/19 01:46:08;;;;;;;11.60;8.02;;;;;;;1.77;71.77;98058.56;5037898;28;20136;-87
2022/01/19 01:48:42;;;;;;;14.05;7.88;;;;;;;1.76;73.16;98052.59;5038771;28;20542;-88
2022/01/19 01:53:56;;;;;;;16.00;7.15;;;;;;;1.70;71.50;98054.72;5037763;28;20049;-85
2022/01/19 01:56:24;;;;;;;11.35;7.38;;;;;;;1.69;71.81;98050.50;5036701;28;20046;-86
2022/01/19 01:58:52;;;;;;;13.55;6.88;;;;;;;1.71;71.92;98046.09;5037255;28;20491;-83
2022/01/19 02:01:19;;;;;;;9.38;5.70;;;;;;;1.71;71.24;98049.50;5037471;28;20049;-86
2022/01/19 02:03:47;;;;;;;12.98;7.07;;;;;;;1.72;73.09;98040.03;5038106;28;20077;-86
2022/01/19 02:06:31;;;;;;;13.63;7.43;;;;;;;1.76;74.97;98042.31;5036695;28;20053;-87
2022/01/19 02:09:09;;;;;;;15.85;7.78;;;;;;;1.85;76.03;98033.22;5037314;28;20049;-90
2022/01/19 02:23:09;;;;;;;9.93;5.93;;;;;;;1.81;71.56;98035.13;5035576;28;20049;-87
2022/01/19 02:25:41;;;;;;;;;;;;;;;1.83;71.08;98029.91;5036372;28;20049;-88
2022/01/19 02:31:47;;;;;;;10.18;5.75;;;;;;;1.79;71.66;98033.59;5036283;28;20046;-85
2022/01/19 02:42:55;;;;;;;12.98;5.80;;;;;;;1.82;71.57;98015.41;4974533;28;20051;-89
2022/01/19 02:50:54;;;;;;;8.75;5.82;;;;;;;1.66;71.52;98000.03;5034672;28;20046;-83
2022/01/19 02:53:23;;;;;;;11.60;5.88;;;;;;;1.55;71.28;98003.28;5034471;28;20524;-87
2022/01/19 02:55:51;;;;;;;5.85;5.20;;;;;;;1.49;71.46;98003.63;5034409;28;20056;-86
2022/01/19 02:58:21;;;;;;;14.65;6.63;;;;;;;1.47;71.79;98007.22;5035539;28;20050;-84
2022/01/19 03:09:11;;;;;;;9.27;5.57;;;;;;;1.47;71.60;97999.50;4996649;28;20054;-91
2022/01/19 03:11:39;;;;;;;9.48;5.97;;;;;;;1.38;71.65;97993.97;5034966;28;20052;-89
2022/01/19 03:14:08;;;;;;;13.13;5.95;;;;;;;1.35;71.75;97995.91;5034466;28;20519;-83
2022/01/19 03:16:36;;;;;;;10.05;5.20;;;;;;;1.30;71.56;97978.16;5001460;28;1038138;-90
2022/01/19 03:19:06;;;;;;;9.40;5.50;;;;;;;1.23;71.82;97966.59;5038952;28;20060;-90
2022/01/19 03:21:34;;;;;;;9.88;5.45;;;;;;;1.18;71.70;97966.88;5038594;28;20431;-90
2022/01/19 03:24:02;;;;;;;10.23;5.78;;;;;;;1.13;71.81;97963.72;5038001;28;20045;-91
2022/01/19 03:26:31;;;;;;;7.75;5.47;;;;;;;1.10;71.92;97961.34;5036927;28;20440;-92
2022/01/19 03:28:59;;;;;;;10.57;5.97;;;;;;;1.12;73.16;97959.50;5036507;28;20049;-90
2022/01/19 03:31:27;;;;;;;14.48;6.07;;;;;;;1.23;75.13;97959.72;5037456;28;20053;-90
2022/01/19 03:33:54;;;;;;;12.68;6.00;;;;;;;1.36;76.81;97961.56;5037496;28;20119;-91
2022/01/19 03:36:22;;;;;;;8.57;5.13;;;;;;;1.45;76.44;97955.88;5036816;28;20057;-87
2022/01/19 03:38:49;;;;;;;13.18;6.63;;;;;;;1.51;76.20;97960.66;5037541;28;20050;-87
2022/01/19 03:41:17;;;;;;;18.65;7.10;;;;;;;1.57;76.39;97954.31;5037041;28;20163;-86
2022/01/19 03:43:46;;;;;;;12.30;5.97;;;;;;;1.58;75.69;97959.38;5036714;28;20057;-91
2022/01/19 03:46:15;;;;;;;10.60;6.13;;;;;;;1.54;73.86;97950.19;5036136;28;20053;-90
2022/01/19 03:48:51;;;;;;;10.60;5.65;;;;;;;1.44;73.07;97955.06;5036660;28;20415;-88
2022/01/19 03:51:19;;;;;;;10.13;5.40;;;;;;;1.40;74.33;97940.72;5035905;28;20050;-85
2022/01/19 03:53:46;;;;;;;10.82;6.65;;;;;;;1.44;75.63;97944.78;5035881;28;20049;-91
2022/01/19 03:56:15;;;;;;;11.25;5.68;;;;;;;1.44;74.36;97943.91;5036078;28;20052;-87
2022/01/19 03:58:42;;;;;;;9.80;5.25;;;;;;;1.41;73.25;97938.97;5042847;28;20049;-90
2022/01/19 04:01:12;;;;;;;9.77;5.93;;;;;;;1.39;74.81;97941.63;5045097;28;20128;-89
2022/01/19 04:04:02;;;;;;;13.32;8.35;;;;;;;1.45;77.03;97930.16;5044535;28;20046;-86
2022/01/19 04:06:53;;;;;;;15.45;9.02;;;;;;;1.52;77.47;97925.47;5042245;28;20072;-90
2022/01/19 04:09:21;;;;;;;16.23;9.60;;;;;;;1.59;78.40;97922.44;5041582;28;20049;-90
2022/01/19 04:11:48;;;;;;;18.35;10.45;;;;;;;1.65;77.55;97927.19;5041508;28;20057;-89
2022/01/19 04:14:25;;;;;;;18.80;10.20;;;;;;;1.55;74.99;97923.56;5040960;28;20061;-88
2022/01/19 04:16:57;;;;;;;17.27;8.38;;;;;;;1.45;73.78;97914.72;5043088;28;20060;-86
2022/01/19 04:19:32;;;;;;;14.70;6.80;;;;;;;1.35;73.56;97911.06;5042625;28;20054;-91
2022/01/19 04:22:02;;;;;;;14.45;8.65;;;;;;;1.28;73.80;97900.31;5041937;28;20046;-91
2022/01/19 04:24:30;;;;;;;10.07;5.05;;;;;;;1.21;73.17;97887.00;5040958;28;20052;-91
2022/01/19 04:29:42;;;;;;;11.35;5.85;;;;;;;1.10;75.13;97873.97;5040092;28;20046;-90
2022/01/19 04:32:15;;;;;;;11.13;5.90;;;;;;;1.14;74.97;97854.88;5040176;28;20507;-90
2022/01/19 04:34:44;;;;;;;;;;;;;;;1.11;73.86;97855.06;5040939;28;20052;-86
2022/01/19 04:37:31;;;;;;;6.18;3.63;;;;;;;1.02;72.85;97850.47;5040177;28;20410;-90
2022/01/19 04:48:27;;;;;;;6.82;3.80;;;;;;;0.73;74.49;97835.03;5039368;28;20061;-86
2022/01/19 04:54:34;;;;;;;9.05;4.80;;;;;;;1.04;78.37;97825.50;4997131;28;20057;-89
2022/01/19 05:02:57;;;;;;;8.70;5.93;;;;;;;1.01;75.80;97815.44;5038824;28;20065;-87
2022/01/19 05:05:30;;;;;;;14.15;6.97;;;;;;;1.07;75.79;97807.31;5037789;28;20052;-90
2022/01/19 05:07:59;;;;;;;12.63;5.60;;;;;;;1.10;76.26;97807.16;5038555;28;20523;-86
2022/01/19 05:13:33;;;;;;;10.10;5.20;;;;;;;1.16;75.62;97804.22;5038832;28;20053;-91
2022/01/19 05:16:00;;;;;;;8.55;5.57;;;;;;;1.20;76.80;97795.41;5037668;28;20049;-90
2022/01/19 05:18:28;;;;;;;11.18;5.22;;;;;;;1.24;76.51;97793.44;5038337;28;20041;-86
2022/01/19 05:20:57;;;;;;;10.80;5.25;;;;;;;1.23;74.80;97802.91;5038020;28;20045;-86
2022/01/19 05:23:24;;;;;;;12.07;5.82;;;;;;;1.22;75.25;97793.56;5037897;28;20080;-91
2022/01/19 05:25:52;;;;;;;10.65;6.43;;;;;;;1.21;76.46;97786.75;5037466;28;20045;-86
2022/01/19 05:28:23;;;;;;;12.30;6.80;;;;;;;1.29;77.38;97780.31;5038204;28;20054;-84
2022/01/19 05:30:51;;;;;;;10.73;6.55;;;;;;;1.33;76.49;97786.91;5037580;28;20054;-89
2022/01/19 05:33:19;;;;;;;13.80;6.07;;;;;;;1.37;76.34;97780.69;5038299;28;20049;-90
2022/01/19 05:35:46;;;;;;;10.75;6.07;;;;;;;1.32;74.30;97777.56;5038089;28;20423;-87
2022/01/19 05:38:15;;;;;;;9.98;4.93;;;;;;;1.18;73.38;97776.69;5037277;28;20053;-83
2022/01/19 05:40:42;;;;;;;12.20;6.18;;;;;;;1.10;74.52;97776.31;5037605;28;20388;-85
2022/01/19 05:43:11;;;;;;;11.05;6.38;;;;;;;1.04;74.75;97768.97;5038526;28;20053;-82
2022/01/19 05:45:38;;;;;;;9.95;5.95;;;;;;;1.02;75.70;97771.63;5037822;28;20049;-88
2022/01/19 05:48:07;;;;;;;12.27;6.30;;;;;;;1.03;76.74;97775.06;5037202;28;20065;-88
2022/01/19 05:50:35;;;;;;;11.32;6.45;;;;;;;1.03;75.90;97775.06;5037386;28;20055;-92
2022/01/19 05:53:03;;;;;;;13.35;7.10;;;;;;;0.98;74.79;97771.91;5037412;28;20057;-84
2022/01/19 05:55:32;;;;;;;18.15;8.70;;;;;;;0.89;73.83;97775.03;5037041;28;20049;-85
2022/01/19 05:58:00;;;;;;;17.15;7.53;;;;;;;0.83;73.71;97768.53;5036581;28;20050;-88
2022/01/19 06:00:27;;;;;;;19.67;8.13;;;;;;;0.77;73.62;97768.91;5036221;28;20049;-83
2022/01/19 06:02:55;;;;;;;14.70;6.68;;;;;;;0.70;73.23;97765.88;5038571;28;20053;-86
2022/01/19 06:05:23;;;;;;;19.27;8.23;;;;;;;0.63;73.19;97767.16;5037912;28;20107;-84
2022/01/19 06:07:59;;;;;;;18.58;7.50;;;;;;;0.63;73.49;97762.00;5036855;28;20060;-87
2022/01/19 06:10:45;;;;;;;13.98;7.40;;;;;;;0.63;73.07;97754.31;5037723;28;20069;-88
2022/01/19 06:13:17;;;;;;;14.02;7.03;;;;;;;0.65;74.06;97749.91;5037169;28;20048;-87
2022/01/19 06:15:45;;;;;;;14.40;7.85;;;;;;;0.69;74.92;97748.81;5037360;28;20080;-91
2022/01/19 06:18:14;;;;;;;12.13;6.72;;;;;;;0.73;74.09;97746.91;5037477;28;20452;-88
2022/01/19 06:20:43;;;;;;;13.23;6.75;;;;;;;0.71;73.71;97754.69;5036488;28;20463;-92
2022/01/19 06:23:11;;;;;;;13.73;8.13;;;;;;;0.70;73.71;97741.91;5037566;28;20049;-87
2022/01/19 06:25:38;;;;;;;11.77;7.80;;;;;;;0.74;73.87;97749.34;5036411;28;20060;-87
2022/01/19 06:28:06;;;;;;;15.55;8.68;;;;;;;0.75;73.56;97740.75;5036106;28;20053;-92
2022/01/19 06:30:35;;;;;;;19.83;9.88;;;;;;;0.77;74.52;97746.63;5036459;28;20049;-89
2022/01/19 06:33:04;;;;;;;16.60;9.25;;;;;;;0.83;75.49;97742.84;5037317;28;20136;-80
2022/01/19 06:35:31;;;;;;;16.10;10.00;;;;;;;0.88;75.17;97734.88;5039528;28;20049;-83
2022/01/19 06:37:59;;;;;;;16.88;8.70;;;;;;;0.89;74.73;97737.31;5063251;28;20041;-80
2022/01/19 06:40:27;;;;;;;16.17;9.55;;;;;;;0.94;74.41;97721.63;5060790;28;20048;-80
2022/01/19 06:42:55;;;;;;;20.13;11.27;;;;;;;0.98;75.61;97723.94;5079023;28;20494;-81
2022/01/19 06:45:23;;;;;;;18.27;10.77;;;;;;;1.01;75.76;97717.78;5070628;28;20441;-83
2022/01/19 06:47:52;;;;;;;19.17;11.10;;;;;;;1.02;75.74;97722.00;5058823;28;20049;-80
2022/01/19 06:50:20;;;;;;;23.88;11.90;;;;;;;1.05;75.99;97720.97;5058329;28;20045;-80
2022/01/19 06:52:49;;;;;;;21.17;13.55;;;;;;;1.11;76.20;97720.59;5057891;28;20395;-82
2022/01/19 06:55:17;;;;;;;19.83;12.00;;;;;;;1.13;75.62;97713.63;5056914;28;20758;-86
2022/01/19 06:57:45;;;;;;;21.25;13.68;;;;;;;1.17;75.79;97707.38;5060522;28;20055;-87
2022/01/19 07:00:14;;;;;;;21.02;13.32;;;;;;;1.17;74.84;97715.09;5059917;28;20051;-87
2022/01/19 07:02:42;;;;;;;23.27;13.27;;;;;;;1.15;75.17;97715.16;5058266;28;20049;-81
2022/01/19 07:05:11;;;;;;;24.27;13.50;;;;;;;1.21;75.69;97717.38;5059965;28;20045;-86
2022/01/19 07:07:39;;;;;;;23.55;12.98;;;;;;;1.25;75.10;97705.16;5058215;28;20052;-85
2022/01/19 07:10:08;;;;;;;19.95;12.18;;;;;;;1.20;74.25;97702.88;5058935;28;20044;-82
2022/01/19 07:12:36;;;;;;;22.40;14.07;;;;;;;1.20;75.07;97710.59;5059676;28;20045;-81
2022/01/19 07:15:04;;;;;;;24.35;15.00;;;;;;;1.26;75.53;97703.41;5058726;28;20056;-79
2022/01/19 07:17:31;;;;;;;28.05;16.35;;;;;;;1.28;76.06;97696.44;5057762;28;20049;-79
2022/01/19 07:19:59;;;;;;;29.80;16.63;;;;;;;1.29;76.20;97687.78;5057781;28;20049;-88
2022/01/19 07:22:28;;;;;;;24.00;16.23;;;;;;;1.23;75.16;97679.53;5058798;28;20053;-88
2022/01/19 07:24:58;;;;;;;32.65;16.33;;;;;;;1.19;75.10;97683.22;5056564;28;20052;-84
2022/01/19 07:27:26;;;;;;;29.45;15.82;;;;;;;1.20;75.48;97692.59;5057355;28;20396;-81
2022/01/19 07:29:53;;;;;;;26.27;15.88;;;;;;;1.24;74.94;97690.63;5058052;28;20053;-82
2022/01/19 07:32:22;;;;;;;26.58;15.60;;;;;;;1.22;74.45;97698.47;5057413;28;20041;-84
2022/01/19 07:34:50;;;;;;;20.83;13.93;;;;;;;1.20;74.28;97697.75;5054830;28;20045;-82
2022/01/19 07:37:18;;;;;;;25.65;15.65;;;;;;;1.18;74.10;97702.16;5054275;28;20646;-86
2022/01/19 07:39:46;;;;;;;23.88;13.93;;;;;;;1.14;73.71;97690.41;5055296;28;20057;-84
2022/01/19 07:42:14;;;;;;;29.55;15.75;;;;;;;1.10;73.59;97686.38;5055065;28;20122;-83
2022/01/19 07:44:42;;;;;;;28.90;16.55;;;;;;;1.02;73.98;97696.31;5055079;28;20060;-88
2022/01/19 07:47:09;;;;;;;27.75;17.80;;;;;;;1.05;76.10;97700.41;5056674;28;20057;-85
2022/01/19 07:49:37;;;;;;;28.77;18.77;;;;;;;1.13;76.98;97700.78;5057943;28;20521;-88
2022/01/19 07:52:05;;;;;;;25.75;14.50;;;;;;;1.17;75.68;97703.06;5056768;28;20052;-87
2022/01/19 07:54:32;;;;;;;26.50;16.38;;;;;;;1.21;75.54;97701.13;5056866;28;20453;-87
2022/01/19 07:57:01;;;;;;;27.98;17.35;;;;;;;1.27;75.74;97705.88;5056180;28;20048;-84
2022/01/19 07:59:29;;;;;;;30.88;18.63;;;;;;;1.35;77.16;97703.63;5055459;28;20072;-86
2022/01/19 08:01:57;;;;;;;26.92;16.92;;;;;;;1.46;77.28;97699.56;5057930;28;20049;-84
2022/01/19 08:04:25;;;;;;;31.50;17.67;;;;;;;1.51;77.11;97695.78;5058101;28;20533;-82
2022/01/19 08:06:54;;;;;;;32.38;17.50;;;;;;;1.54;76.13;97693.00;5058087;28;20072;-85
2022/01/19 08:09:21;;;;;;;26.98;17.20;;;;;;;1.55;76.70;97693.84;5056959;28;20051;-89
2022/01/19 08:11:49;;;;;;;27.02;16.63;;;;;;;1.61;77.22;97691.69;5059111;28;20045;-83
2022/01/19 08:14:18;;;;;;;30.70;18.25;;;;;;;1.70;77.39;97692.03;5060369;28;20056;-84
2022/01/19 08:16:46;;;;;;;26.52;16.70;;;;;;;1.75;77.50;97689.97;5077805;22;20052;-75
2022/01/19 08:19:14;;;;;;;29.38;16.95;;;;;;;1.79;77.92;97686.28;5053217;28;20423;-75
2022/01/19 08:21:41;;;;;;;27.58;17.02;;;;;;;1.79;77.55;97676.84;5052856;28;20049;-76
2022/01/19 08:24:09;;;;;;;28.13;17.38;;;;;;;1.79;76.79;97670.84;5052604;28;20076;-76
2022/01/19 08:26:36;;;;;;;28.10;18.30;;;;;;;1.81;77.09;97669.00;5051719;28;20061;-76
2022/01/19 08:29:05;;;;;;;24.48;16.60;;;;;;;1.84;77.05;97658.53;5052439;28;20499;-76
2022/01/19 08:31:34;;;;;;;25.10;16.30;;;;;;;1.92;77.56;97651.09;5052689;28;20053;-76
2022/01/19 08:34:03;;;;;;;28.30;16.80;;;;;;;1.94;75.95;97644.09;5052277;28;20041;-77
2022/01/19 08:36:30;;;;;;;24.70;16.52;;;;;;;1.99;76.20;97651.50;5052328;28;20053;-75
2022/01/19 08:38:59;;;;;;;29.00;18.10;;;;;;;2.01;75.53;97644.50;5052394;28;20065;-77
2022/01/19 08:41:26;;;;;;;25.30;16.77;;;;;;;1.99;76.06;97654.94;5052406;28;20060;-78
2022/01/19 08:43:54;;;;;;;29.38;18.95;;;;;;;2.02;76.12;97647.00;5055172;28;20053;-77
2022/01/19 08:46:22;;;;;;;29.45;17.00;;;;;;;2.05;75.10;97657.06;5055738;28;20421;-76
2022/01/19 08:48:51;;;;;;;25.92;15.63;;;;;;;2.09;74.31;97656.88;5055506;28;20049;-75
2022/01/19 08:51:18;;;;;;;27.55;16.35;;;;;;;2.11;74.52;97652.47;5055849;28;20060;-77
2022/01/19 08:53:46;;;;;;;27.90;16.90;;;;;;;2.13;74.67;97650.59;5055906;28;20495;-77
2022/01/19 08:56:14;;;;;;;27.55;16.75;;;;;;;2.16;74.57;97646.06;5056401;28;20057;-76
2022/01/19 08:58:42;;;;;;;23.98;16.85;;;;;;;2.21;74.94;97651.75;5056262;28;20049;-77
2022/01/19 09:01:09;;;;;;;27.02;17.77;;;;;;;2.28;75.19;97647.00;5056241;28;20060;-76
2022/01/19 09:03:37;;;;;;;31.77;17.48;;;;;;;2.34;74.38;97651.72;5055335;28;20598;-75
2022/01/19 09:06:07;;;;;;;29.20;17.75;;;;;;;2.41;75.46;97641.84;5055005;28;20399;-75
2022/01/19 09:08:35;;;;;;;26.67;16.75;;;;;;;2.47;74.36;97637.09;5055730;28;20053;-76
2022/01/19 09:11:02;;;;;;;32.45;18.85;;;;;;;2.53;74.87;97635.81;5056230;28;20048;-76
2022/01/19 09:13:30;;;;;;;24.77;16.05;;;;;;;2.57;73.40;97639.03;5056222;28;20055;-76
2022/01/19 09:15:57;;;;;;;24.95;16.90;;;;;;;2.59;73.73;97632.00;5055504;28;20057;-77
2022/01/19 09:18:25;;;;;;;30.95;18.63;;;;;;;2.64;74.58;97637.66;5055563;28;20053;-76
2022/01/19 09:20:53;;;;;;;28.67;17.77;;;;;;;2.75;75.46;97639.50;5055691;28;20056;-75
2022/01/19 09:23:22;;;;;;;27.00;16.85;;;;;;;2.82;73.65;97636.41;5056069;28;20098;-76
2022/01/19 09:25:49;;;;;;;28.20;17.38;;;;;;;2.89;74.81;97636.78;5055855;28;20499;-75
2022/01/19 09:28:17;;;;;;;30.30;19.30;;;;;;;2.97;75.56;97638.81;5055588;28;20549;-75
2022/01/19 09:30:45;;;;;;;29.80;18.38;;;;;;;3.07;76.02;97637.22;5055780;28;20049;-75
2022/01/19 09:33:19;;;;;;;27.65;16.70;;;;;;;3.17;76.31;97638.22;5055827;28;20045;-76
2022/01/19 09:36:05;;;;;;;27.75;17.45;;;;;;;3.28;76.17;97638.28;5056151;28;20057;-74
2022/01/19 09:38:36;;;;;;;28.42;17.27;;;;;;;3.38;75.76;97632.44;5055546;28;20072;-75
2022/01/19 09:41:06;;;;;;;26.55;16.00;;;;;;;3.47;75.60;97632.59;5055548;28;20661;-75
2022/01/19 09:43:35;;;;;;;19.45;13.02;;;;;;;3.54;73.78;97638.13;5055589;28;20045;-74
2022/01/19 09:46:04;;;;;;;23.17;15.98;;;;;;;3.59;74.07;97642.97;5055446;28;20419;-75
2022/01/19 09:48:33;;;;;;;25.92;16.45;;;;;;;3.67;74.29;97640.63;5071963;28;20037;-74
2022/01/19 09:51:01;;;;;;;24.52;15.90;;;;;;;3.74;73.36;97638.41;5073614;28;20056;-76
2022/01/19 09:53:28;;;;;;;24.30;15.63;;;;;;;3.77;72.56;97641.59;5072863;28;20079;-75
2022/01/19 09:55:57;;;;;;;19.77;14.68;;;;;;;3.83;72.48;97638.56;5072574;28;20045;-74
2022/01/19 09:58:25;;;;;;;25.33;16.88;;;;;;;3.92;73.31;97637.88;5074071;28;20049;-75
2022/01/19 10:00:52;;;;;;;27.90;17.90;;;;;;;4.04;73.40;97641.28;5074142;28;20064;-74
2022/01/19 10:03:22;;;;;;;24.75;17.88;;;;;;;4.15;72.30;97639.69;5073805;28;20075;-74
2022/01/19 10:06:03;;;;;;;24.77;16.95;;;;;;;4.26;72.50;97642.25;5065854;28;20055;-75
2022/01/19 10:08:32;;;;;;;24.63;16.35;;;;;;;4.38;71.88;97649.09;5055488;28;20422;-75
2022/01/19 10:11:13;;;;;;;24.45;16.42;;;;;;;4.49;68.96;97635.34;5054860;28;20044;-75
2022/01/19 10:19:16;;;;;;;31.70;18.52;;;;;;;5.06;71.74;97623.16;5054893;28;20431;-76
2022/01/19 10:21:56;;;;;;;22.13;14.85;;;;;;;5.33;67.43;97609.78;5058976;28;20414;-76
2022/01/19 10:24:48;;;;;;;20.50;14.38;;;;;;;5.67;68.85;97597.50;5058833;28;20045;-76
2022/01/19 10:27:27;;;;;;;17.00;12.80;;;;;;;6.13;67.80;97603.25;5059383;28;20053;-75
2022/01/19 10:30:11;;;;;;;17.88;12.77;;;;;;;6.67;67.44;97585.69;5063880;28;20049;-76
2022/01/19 10:32:41;;;;;;;18.98;12.43;;;;;;;7.33;63.33;97578.13;5072983;28;20048;-76
2022/01/19 10:35:22;;;;;;;18.10;13.95;;;;;;;8.03;60.78;97583.91;5073699;28;20037;-76
2022/01/19 10:38:06;;;;;;;18.42;12.73;;;;;;;8.65;55.12;97573.81;5072664;28;20059;-76
2022/01/19 10:40:35;;;;;;;18.17;12.25;;;;;;;9.39;56.79;97566.72;5073577;28;20043;-76
2022/01/19 10:43:32;;;;;;;14.20;12.02;;;;;;;10.31;51.27;97560.16;5059075;28;20067;-76
2022/01/19 10:46:02;;;;;;;14.73;12.02;;;;;;;11.33;49.62;97560.09;5055901;28;20090;-77
2022/01/19 10:48:36;;;;;;;16.55;10.77;;;;;;;12.32;48.14;97555.56;5055639;28;20051;-76
2022/01/19 10:51:12;;;;;;;12.80;10.18;;;;;;;12.94;44.37;97545.13;5054893;28;20052;-75
2022/01/19 10:53:43;;;;;;;12.93;10.27;;;;;;;13.58;43.62;97541.41;5054534;28;20450;-76
2022/01/19 10:56:25;;;;;;;11.77;9.40;;;;;;;14.69;40.16;97537.06;5054105;28;20133;-76
2022/01/19 10:58:59;;;;;;;14.45;9.63;;;;;;;15.72;38.57;97534.22;5055156;28;20049;-76
2022/01/19 11:01:35;;;;;;;10.30;9.23;;;;;;;16.40;35.20;97532.59;5055214;28;20060;-76
2022/01/19 11:04:24;;;;;;;11.30;8.65;;;;;;;16.56;37.19;97535.91;5055094;28;20045;-75
2022/01/19 11:06:53;;;;;;;10.00;8.20;;;;;;;17.07;36.31;97523.09;5053590;28;20053;-75
2022/01/19 11:09:24;;;;;;;8.63;7.72;;;;;;;18.03;36.13;97529.00;5054297;28;20546;-76
2022/01/19 11:11:53;;;;;;;10.00;7.88;;;;;;;18.88;34.20;97527.09;5054208;28;20454;-75
2022/01/19 11:14:24;;;;;;;9.45;7.78;;;;;;;19.21;31.55;97520.78;5054074;28;20049;-76
2022/01/19 11:16:52;;;;;;;8.88;7.55;;;;;;;18.85;31.64;97524.88;5053282;28;20059;-76
2022/01/19 11:19:21;;;;;;;10.35;7.75;;;;;;;19.09;32.99;97506.66;5052866;28;20082;-76
2022/01/19 11:21:59;;;;;;;13.27;7.32;;;;;;;19.56;29.36;97509.75;5057823;28;20065;-76
2022/01/19 11:24:34;;;;;;;9.80;7.05;;;;;;;20.02;30.40;97502.41;5053335;28;20506;-75
2022/01/19 11:27:03;;;;;;;10.07;7.10;;;;;;;19.99;29.87;97498.38;5052642;28;20053;-76
2022/01/19 11:29:33;;;;;;;8.10;7.30;;;;;;;19.66;32.15;97494.19;5052939;28;20118;-77
2022/01/19 11:32:14;;;;;;;9.02;7.60;;;;;;;20.20;29.19;97483.06;5052375;28;20056;-76
2022/01/19 11:34:46;;;;;;;9.07;7.10;;;;;;;20.87;31.23;97464.50;5053467;28;20045;-78
2022/01/19 11:37:15;;;;;;;9.52;7.10;;;;;;;20.84;30.73;97465.78;5052949;28;20045;-75
2022/01/19 11:40:02;;;;;;;8.73;6.68;;;;;;;20.37;30.93;97462.88;5052122;28;20045;-74
2022/01/19 11:42:30;;;;;;;7.25;6.57;;;;;;;20.60;31.77;97456.94;5052154;28;20060;-76
2022/01/19 11:44:59;;;;;;;7.47;6.35;;;;;;;21.33;30.64;97458.47;5052457;28;20052;-75
2022/01/19 11:47:31;;;;;;;7.90;6.78;;;;;;;21.91;28.74;97445.44;5050972;28;20063;-76
2022/01/19 11:50:01;;;;;;;9.70;7.13;;;;;;;21.81;28.48;97441.53;5050533;28;20059;-76
2022/01/19 11:53:05;;;;;;;10.27;7.35;;;;;;;21.38;30.62;97437.38;5051084;28;20049;-76
2022/01/19 11:55:33;;;;;;;10.65;7.57;;;;;;;22.09;29.00;97426.69;5052475;28;20052;-76
2022/01/19 11:58:13;;;;;;;8.43;7.50;;;;;;;22.67;27.05;97429.41;5051212;28;20049;-76
2022/01/19 12:00:43;;;;;;;8.45;7.10;;;;;;;22.76;27.87;97420.81;5050278;28;20049;-76
2022/01/19 12:03:19;;;;;;;8.38;7.47;;;;;;;22.02;27.61;97420.72;5050508;28;20064;-76
2022/01/19 12:06:06;;;;;;;10.45;7.13;;;;;;;22.40;27.77;97411.38;5050191;28;20049;-75
2022/01/19 12:08:38;;;;;;;9.13;7.00;;;;;;;23.00;27.89;97408.19;5051452;28;20111;-76
2022/01/19 12:11:15;;;;;;;8.33;7.23;;;;;;;23.10;26.51;97414.72;5052412;28;20499;-76
2022/01/19 12:13:57;;;;;;;9.35;7.90;;;;;;;22.34;28.33;97407.81;5052067;28;20430;-77
2022/01/19 12:16:38;;;;;;;7.83;7.03;;;;;;;22.36;28.24;97405.72;5051775;28;20060;-77
2022/01/19 12:19:15;;;;;;;11.35;8.57;;;;;;;22.95;27.02;97407.28;5055298;28;20045;-77
2022/01/19 12:21:47;;;;;;;20.98;13.75;;;;;;;22.98;25.62;97401.44;5056317;28;20060;-78
2022/01/19 12:24:43;;;;;;;14.15;10.05;;;;;;;22.11;28.60;97390.06;5055815;28;20111;-77
2022/01/19 12:27:26;;;;;;;13.32;8.57;;;;;;;22.30;28.16;97389.91;5055794;28;20072;-78
2022/01/19 12:30:04;;;;;;;8.63;7.70;;;;;;;22.78;26.15;97397.44;5055941;28;20056;-78
2022/01/19 12:33:04;;;;;;;9.25;6.85;;;;;;;21.71;25.53;97398.84;5056087;28;20048;-77
2022/01/19 12:35:35;;;;;;;8.02;6.78;;;;;;;20.33;28.03;97388.34;5011119;28;20052;-78
2022/01/19 12:38:07;;;;;;;10.25;7.63;;;;;;;19.41;31.81;97379.63;5055249;28;20139;-77
2022/01/19 12:40:43;;;;;;;8.05;6.60;;;;;;;18.51;28.67;97386.00;5055445;28;20055;-77
2022/01/19 12:43:31;;;;;;;9.40;7.20;;;;;;;17.52;31.30;97379.28;5055950;28;20055;-76
2022/01/19 12:46:00;;;;;;;7.40;6.28;;;;;;;16.61;34.48;97376.25;5055425;28;20132;-77
2022/01/19 12:48:41;;;;;;;8.13;6.50;;;;;;;15.77;37.76;97381.91;5055861;28;20049;-77
2022/01/19 12:51:33;;;;;;;9.02;6.93;;;;;;;14.91;37.52;97364.56;5055834;28;20140;-76
2022/01/19 12:54:01;;;;;;;21.95;12.90;;;;;;;14.31;40.38;97363.16;5055528;28;20056;-77
2022/01/19 12:56:57;;;;;;;15.13;8.32;;;;;;;13.78;41.07;97358.16;5055077;28;20053;-77
2022/01/19 12:59:25;;;;;;;9.05;6.93;;;;;;;13.35;39.67;97356.16;5055445;28;20495;-77